Terminal Aerodrome Forecast
Issued by NWS

Home | Current Version | Previous Version | Text Only | Print | Product List | Glossary On
Versions: 1 2 3 4 5 6 7 8 9 10 11 12 13 14 15 16 17 18
000
FTUS46 KMFR 231143
TAFOTH
TAF
KOTH 231143Z 2312/2412 16010KT P6SM OVC080
     FM231300 16012KT P6SM -RA SCT030 OVC050
     FM231900 16015G25KT 5SM -RA SCT015 OVC030
     FM232300 19018G26KT 3SM RA OVC015=

USA.gov is the U.S. government's official web portal to all federal, state and local government web resources and services.